sensor_id;sensor_type;location;lat;lon;timestamp;pressure;altitude;pressure_sealevel;temperature;humidity
47785;BME280;35233;55.686;37.848;2023-02-28T00:01:12;100243.31;;;8.81;43.06
47785;BME280;35233;55.686;37.848;2023-02-28T00:03:37;100244.16;;;8.84;42.77
47785;BME280;35233;55.686;37.848;2023-02-28T00:06:04;100225.75;;;8.78;42.90
47785;BME280;35233;55.686;37.848;2023-02-28T00:08:30;100235.41;;;8.81;42.87
47785;BME280;35233;55.686;37.848;2023-02-28T00:10:55;100227.66;;;8.69;42.95
47785;BME280;35233;55.686;37.848;2023-02-28T00:13:21;100227.53;;;8.79;42.81
47785;BME280;35233;55.686;37.848;2023-02-28T00:15:46;100225.81;;;8.75;42.74
47785;BME280;35233;55.686;37.848;2023-02-28T00:18:12;100219.66;;;8.76;42.81
47785;BME280;35233;55.686;37.848;2023-02-28T00:20:38;100197.88;;;8.60;42.86
47785;BME280;35233;55.686;37.848;2023-02-28T00:23:04;100217.16;;;8.67;42.76
47785;BME280;35233;55.686;37.848;2023-02-28T00:25:30;100217.94;;;8.74;42.55
47785;BME280;35233;55.686;37.848;2023-02-28T00:27:55;100217.09;;;8.69;42.96
47785;BME280;35233;55.686;37.848;2023-02-28T00:30:22;100218.88;;;8.67;43.01
47785;BME280;35233;55.686;37.848;2023-02-28T00:32:49;100196.13;;;8.63;43.15
47785;BME280;35233;55.686;37.848;2023-02-28T00:35:15;100203.91;;;8.72;42.84
47785;BME280;35233;55.686;37.848;2023-02-28T00:37:42;100196.94;;;8.66;42.82
47785;BME280;35233;55.686;37.848;2023-02-28T00:40:08;100211.81;;;8.72;42.95
47785;BME280;35233;55.686;37.848;2023-02-28T00:42:34;100202.31;;;8.57;42.77
47785;BME280;35233;55.686;37.848;2023-02-28T00:45:00;100204.81;;;8.69;42.72
47785;BME280;35233;55.686;37.848;2023-02-28T00:47:26;100204.06;;;8.61;42.88
47785;BME280;35233;55.686;37.848;2023-02-28T00:49:52;100192.53;;;8.68;42.92
47785;BME280;35233;55.686;37.848;2023-02-28T00:52:17;100190.81;;;8.67;42.75
47785;BME280;35233;55.686;37.848;2023-02-28T00:54:43;100194.34;;;8.63;42.75
47785;BME280;35233;55.686;37.848;2023-02-28T00:57:08;100170.66;;;8.63;42.56
47785;BME280;35233;55.686;37.848;2023-02-28T00:59:34;100170.69;;;8.61;42.78
47785;BME280;35233;55.686;37.848;2023-02-28T01:02:00;100163.72;;;8.54;42.72
47785;BME280;35233;55.686;37.848;2023-02-28T01:04:25;100171.50;;;8.64;42.65
47785;BME280;35233;55.686;37.848;2023-02-28T01:06:51;100172.34;;;8.69;42.74
47785;BME280;35233;55.686;37.848;2023-02-28T01:09:16;100168.94;;;8.59;42.88
47785;BME280;35233;55.686;37.848;2023-02-28T01:11:42;100168.91;;;8.62;42.84
47785;BME280;35233;55.686;37.848;2023-02-28T01:14:12;100165.44;;;8.58;42.59
47785;BME280;35233;55.686;37.848;2023-02-28T01:16:38;100151.50;;;8.50;42.75
47785;BME280;35233;55.686;37.848;2023-02-28T01:19:04;100157.47;;;8.63;42.45
47785;BME280;35233;55.686;37.848;2023-02-28T01:21:29;100153.13;;;8.60;42.35
47785;BME280;35233;55.686;37.848;2023-02-28T01:23:56;100143.53;;;8.55;42.49
47785;BME280;35233;55.686;37.848;2023-02-28T01:26:23;100139.06;;;8.60;42.50
47785;BME280;35233;55.686;37.848;2023-02-28T01:28:49;100136.50;;;8.57;42.58
47785;BME280;35233;55.686;37.848;2023-02-28T01:31:15;100108.63;;;8.36;42.79
47785;BME280;35233;55.686;37.848;2023-02-28T01:33:41;100126.94;;;8.50;42.35
47785;BME280;35233;55.686;37.848;2023-02-28T01:36:18;100123.41;;;8.49;42.63
47785;BME280;35233;55.686;37.848;2023-02-28T01:38:45;100115.50;;;8.51;42.29
47785;BME280;35233;55.686;37.848;2023-02-28T01:41:23;100117.28;;;8.50;42.24
47785;BME280;35233;55.686;37.848;2023-02-28T01:46:15;100108.44;;;8.54;42.02
47785;BME280;35233;55.686;37.848;2023-02-28T01:51:18;100100.59;;;8.50;42.36
47785;BME280;35233;55.686;37.848;2023-02-28T01:53:51;100102.38;;;8.46;42.38
47785;BME280;35233;55.686;37.848;2023-02-28T01:56:21;100090.97;;;8.47;42.51
47785;BME280;35233;55.686;37.848;2023-02-28T01:58:51;100076.13;;;8.37;42.34
47785;BME280;35233;55.686;37.848;2023-02-28T02:01:18;100083.13;;;8.43;42.20
47785;BME280;35233;55.686;37.848;2023-02-28T02:04:02;100080.53;;;8.38;42.26
47785;BME280;35233;55.686;37.848;2023-02-28T02:06:34;100081.34;;;8.43;42.12
47785;BME280;35233;55.686;37.848;2023-02-28T02:09:00;100085.66;;;8.50;41.88
47785;BME280;35233;55.686;37.848;2023-02-28T02:11:26;100076.09;;;8.43;41.90
47785;BME280;35233;55.686;37.848;2023-02-28T02:19:24;100056.84;;;8.39;42.10
47785;BME280;35233;55.686;37.848;2023-02-28T02:22:18;100055.94;;;8.37;41.96
47785;BME280;35233;55.686;37.848;2023-02-28T02:36:23;100048.03;;;8.37;41.76
47785;BME280;35233;55.686;37.848;2023-02-28T02:38:56;100044.63;;;8.31;42.11
47785;BME280;35233;55.686;37.848;2023-02-28T02:41:50;100043.72;;;8.32;42.05
47785;BME280;35233;55.686;37.848;2023-02-28T02:46:49;100036.81;;;8.26;42.06
47785;BME280;35233;55.686;37.848;2023-02-28T02:49:26;100033.28;;;8.26;41.67
47785;BME280;35233;55.686;37.848;2023-02-28T02:51:54;100035.00;;;8.30;41.87
47785;BME280;35233;55.686;37.848;2023-02-28T02:54:24;100026.25;;;8.28;41.76
47785;BME280;35233;55.686;37.848;2023-02-28T02:56:55;100024.56;;;8.24;42.17
47785;BME280;35233;55.686;37.848;2023-02-28T02:59:22;100014.97;;;8.16;41.91
47785;BME280;35233;55.686;37.848;2023-02-28T03:01:53;100021.03;;;8.25;41.84
47785;BME280;35233;55.686;37.848;2023-02-28T03:04:22;100003.59;;;8.16;41.97
47785;BME280;35233;55.686;37.848;2023-02-28T03:06:50;100004.31;;;8.27;41.75
47785;BME280;35233;55.686;37.848;2023-02-28T03:09:23;99997.44;;;8.17;41.70
47785;BME280;35233;55.686;37.848;2023-02-28T03:11:49;100007.91;;;8.23;41.51
47785;BME280;35233;55.686;37.848;2023-02-28T03:17:14;99999.22;;;8.15;42.10
47785;BME280;35233;55.686;37.848;2023-02-28T03:20:07;99995.66;;;8.19;41.78
47785;BME280;35233;55.686;37.848;2023-02-28T03:22:59;99993.03;;;8.19;41.56
47785;BME280;35233;55.686;37.848;2023-02-28T03:34:02;99973.88;;;8.09;41.81
47785;BME280;35233;55.686;37.848;2023-02-28T03:36:32;99971.19;;;8.11;41.72
47785;BME280;35233;55.686;37.848;2023-02-28T03:39:14;99960.63;;;8.14;41.98
47785;BME280;35233;55.686;37.848;2023-02-28T03:41:45;99951.00;;;8.14;41.70
47785;BME280;35233;55.686;37.848;2023-02-28T03:44:30;99932.63;;;8.08;41.83
47785;BME280;35233;55.686;37.848;2023-02-28T03:47:03;99933.50;;;8.10;42.08
47785;BME280;35233;55.686;37.848;2023-02-28T03:49:40;99931.84;;;8.03;42.07
47785;BME280;35233;55.686;37.848;2023-02-28T03:52:09;99937.16;;;8.00;41.93
47785;BME280;35233;55.686;37.848;2023-02-28T03:54:41;99945.84;;;8.05;41.60
47785;BME280;35233;55.686;37.848;2023-02-28T03:57:32;99929.97;;;8.11;41.67
47785;BME280;35233;55.686;37.848;2023-02-28T03:59:58;99916.03;;;8.06;41.75
47785;BME280;35233;55.686;37.848;2023-02-28T04:02:23;99915.16;;;8.03;41.74
47785;BME280;35233;55.686;37.848;2023-02-28T04:04:49;99910.72;;;8.09;42.00
47785;BME280;35233;55.686;37.848;2023-02-28T04:07:16;99909.03;;;8.04;41.76
47785;BME280;35233;55.686;37.848;2023-02-28T04:09:43;99897.59;;;8.05;41.60
47785;BME280;35233;55.686;37.848;2023-02-28T04:12:08;99893.22;;;8.05;41.53
47785;BME280;35233;55.686;37.848;2023-02-28T04:14:34;99887.19;;;7.99;41.70
47785;BME280;35233;55.686;37.848;2023-02-28T04:16:59;99872.25;;;8.01;41.30
47785;BME280;35233;55.686;37.848;2023-02-28T04:19:25;99879.31;;;7.97;41.69
47785;BME280;35233;55.686;37.848;2023-02-28T04:21:52;99887.13;;;8.03;41.92
47785;BME280;35233;55.686;37.848;2023-02-28T04:24:21;99879.31;;;7.97;41.55
47785;BME280;35233;55.686;37.848;2023-02-28T04:26:50;99859.19;;;7.93;41.33
47785;BME280;35233;55.686;37.848;2023-02-28T04:31:46;99867.81;;;8.03;41.71
47785;BME280;35233;55.686;37.848;2023-02-28T04:34:12;99874.78;;;8.05;41.09
47785;BME280;35233;55.686;37.848;2023-02-28T04:36:37;99871.31;;;8.05;41.34
47785;BME280;35233;55.686;37.848;2023-02-28T04:39:03;99859.91;;;8.03;41.49
47785;BME280;35233;55.686;37.848;2023-02-28T04:41:29;99859.97;;;8.01;41.11
47785;BME280;35233;55.686;37.848;2023-02-28T04:43:55;99849.28;;;8.10;41.50
47785;BME280;35233;55.686;37.848;2023-02-28T04:46:22;99840.59;;;8.05;41.09
47785;BME280;35233;55.686;37.848;2023-02-28T04:48:47;99826.56;;;8.06;41.51
47785;BME280;35233;55.686;37.848;2023-02-28T04:51:15;99824.72;;;8.11;41.05
47785;BME280;35233;55.686;37.848;2023-02-28T04:53:41;99836.22;;;8.04;41.24
47785;BME280;35233;55.686;37.848;2023-02-28T04:56:09;99812.47;;;8.10;40.96
47785;BME280;35233;55.686;37.848;2023-02-28T04:58:35;99810.56;;;8.19;40.95
47785;BME280;35233;55.686;37.848;2023-02-28T05:01:06;99804.28;;;8.80;40.26
47785;BME280;35233;55.686;37.848;2023-02-28T05:03:38;99803.84;;;8.55;41.07
47785;BME280;35233;55.686;37.848;2023-02-28T05:06:06;99786.69;;;8.31;41.49
47785;BME280;35233;55.686;37.848;2023-02-28T05:08:32;99797.09;;;8.37;41.04
47785;BME280;35233;55.686;37.848;2023-02-28T05:10:58;99794.53;;;8.34;41.00
47785;BME280;35233;55.686;37.848;2023-02-28T05:13:26;99796.22;;;8.38;41.14
47785;BME280;35233;55.686;37.848;2023-02-28T05:15:51;99803.19;;;8.44;40.78
47785;BME280;35233;55.686;37.848;2023-02-28T05:18:16;99788.09;;;8.53;40.71
47785;BME280;35233;55.686;37.848;2023-02-28T05:20:42;99787.97;;;8.61;40.67
47785;BME280;35233;55.686;37.848;2023-02-28T05:23:10;99766.91;;;8.61;40.25
47785;BME280;35233;55.686;37.848;2023-02-28T05:25:36;99758.03;;;8.65;40.56
47785;BME280;35233;55.686;37.848;2023-02-28T05:28:02;99754.31;;;8.75;40.04
47785;BME280;35233;55.686;37.848;2023-02-28T05:30:30;99754.22;;;8.80;39.92
47785;BME280;35233;55.686;37.848;2023-02-28T05:32:57;99746.31;;;8.80;39.73
47785;BME280;35233;55.686;37.848;2023-02-28T05:35:23;99734.88;;;8.82;39.78
47785;BME280;35233;55.686;37.848;2023-02-28T05:37:49;99698.25;;;8.69;39.81
47785;BME280;35233;55.686;37.848;2023-02-28T05:40:15;99717.22;;;8.86;39.20
47785;BME280;35233;55.686;37.848;2023-02-28T05:42:41;99711.09;;;8.86;39.61
47785;BME280;35233;55.686;37.848;2023-02-28T05:45:07;99697.66;;;8.99;39.10
47785;BME280;35233;55.686;37.848;2023-02-28T05:47:33;99702.66;;;9.12;38.99
47785;BME280;35233;55.686;37.848;2023-02-28T05:49:59;99694.59;;;9.18;38.82
47785;BME280;35233;55.686;37.848;2023-02-28T05:52:25;99696.47;;;9.13;38.88
47785;BME280;35233;55.686;37.848;2023-02-28T05:54:51;99689.41;;;9.15;38.77
47785;BME280;35233;55.686;37.848;2023-02-28T05:57:16;99677.88;;;9.20;38.52
47785;BME280;35233;55.686;37.848;2023-02-28T05:59:42;99683.94;;;9.24;38.62
47785;BME280;35233;55.686;37.848;2023-02-28T06:02:15;99685.59;;;9.28;38.63
47785;BME280;35233;55.686;37.848;2023-02-28T06:04:41;99689.91;;;9.32;38.36
47785;BME280;35233;55.686;37.848;2023-02-28T06:07:08;99661.06;;;9.62;37.87
47785;BME280;35233;55.686;37.848;2023-02-28T06:09:34;99671.84;;;10.57;36.18
47785;BME280;35233;55.686;37.848;2023-02-28T06:12:00;99671.22;;;10.13;36.65
47785;BME280;35233;55.686;37.848;2023-02-28T06:14:29;99654.78;;;9.67;37.60
47785;BME280;35233;55.686;37.848;2023-02-28T06:16:56;99657.13;;;9.42;38.21
47785;BME280;35233;55.686;37.848;2023-02-28T06:19:22;99637.31;;;9.26;38.61
47785;BME280;35233;55.686;37.848;2023-02-28T06:21:51;99635.31;;;9.37;38.47
47785;BME280;35233;55.686;37.848;2023-02-28T06:24:19;99620.97;;;9.49;38.47
47785;BME280;35233;55.686;37.848;2023-02-28T06:26:45;99615.44;;;9.58;38.38
47785;BME280;35233;55.686;37.848;2023-02-28T06:29:10;99612.63;;;9.66;37.90
47785;BME280;35233;55.686;37.848;2023-02-28T06:31:36;99607.34;;;9.66;38.23
47785;BME280;35233;55.686;37.848;2023-02-28T06:34:04;99619.56;;;9.70;38.26
47785;BME280;35233;55.686;37.848;2023-02-28T06:36:29;99609.16;;;9.64;38.15
47785;BME280;35233;55.686;37.848;2023-02-28T06:38:57;99599.56;;;9.60;38.27
47785;BME280;35233;55.686;37.848;2023-02-28T06:41:24;99578.69;;;9.52;38.55
47785;BME280;35233;55.686;37.848;2023-02-28T06:43:51;99605.59;;;9.65;38.63
47785;BME280;35233;55.686;37.848;2023-02-28T06:46:19;99611.91;;;9.59;38.44
47785;BME280;35233;55.686;37.848;2023-02-28T06:48:45;99611.00;;;9.60;38.56
47785;BME280;35233;55.686;37.848;2023-02-28T06:51:17;99599.72;;;9.53;38.39
47785;BME280;35233;55.686;37.848;2023-02-28T06:53:43;99569.84;;;9.53;38.38
47785;BME280;35233;55.686;37.848;2023-02-28T06:56:11;99572.22;;;9.64;38.41
47785;BME280;35233;55.686;37.848;2023-02-28T06:58:38;99561.88;;;9.56;38.52
47785;BME280;35233;55.686;37.848;2023-02-28T07:01:05;99543.50;;;9.53;38.54
47785;BME280;35233;55.686;37.848;2023-02-28T07:03:31;99552.06;;;9.61;38.52
47785;BME280;35233;55.686;37.848;2023-02-28T07:05:57;99521.84;;;9.40;38.52
47785;BME280;35233;55.686;37.848;2023-02-28T07:08:24;99527.66;;;9.53;38.55
47785;BME280;35233;55.686;37.848;2023-02-28T07:10:54;99527.56;;;9.58;38.72
47785;BME280;35233;55.686;37.848;2023-02-28T07:13:20;99535.38;;;9.61;38.57
47785;BME280;35233;55.686;37.848;2023-02-28T07:16:01;99516.00;;;9.63;38.70
47785;BME280;35233;55.686;37.848;2023-02-28T07:18:28;99499.25;;;9.63;38.54
47785;BME280;35233;55.686;37.848;2023-02-28T07:20:53;99495.56;;;9.70;38.68
47785;BME280;35233;55.686;37.848;2023-02-28T07:23:19;99483.34;;;9.67;38.39
47785;BME280;35233;55.686;37.848;2023-02-28T07:25:45;99495.38;;;9.78;38.34
47785;BME280;35233;55.686;37.848;2023-02-28T07:28:11;99481.34;;;9.75;38.33
47785;BME280;35233;55.686;37.848;2023-02-28T07:30:37;99471.66;;;9.76;38.27
47785;BME280;35233;55.686;37.848;2023-02-28T07:33:03;99457.69;;;9.72;38.34
47785;BME280;35233;55.686;37.848;2023-02-28T07:35:29;99468.06;;;9.79;38.38
47785;BME280;35233;55.686;37.848;2023-02-28T07:37:58;99448.84;;;9.75;38.23
47785;BME280;35233;55.686;37.848;2023-02-28T07:40:24;99454.97;;;9.75;37.93
47785;BME280;35233;55.686;37.848;2023-02-28T07:42:50;99451.31;;;9.81;38.14
47785;BME280;35233;55.686;37.848;2023-02-28T07:45:16;99452.84;;;9.88;37.97
47785;BME280;35233;55.686;37.848;2023-02-28T07:47:43;99410.22;;;9.72;38.05
47785;BME280;35233;55.686;37.848;2023-02-28T07:50:11;99434.09;;;9.97;38.16
47785;BME280;35233;55.686;37.848;2023-02-28T07:52:37;99444.66;;;9.97;38.07
47785;BME280;35233;55.686;37.848;2023-02-28T07:55:04;99431.63;;;9.93;37.99
47785;BME280;35233;55.686;37.848;2023-02-28T07:57:30;99426.38;;;9.91;38.38
47785;BME280;35233;55.686;37.848;2023-02-28T07:59:55;99440.03;;;10.06;37.83
47785;BME280;35233;55.686;37.848;2023-02-28T08:02:21;99442.47;;;10.12;37.87
47785;BME280;35233;55.686;37.848;2023-02-28T08:04:47;99426.53;;;10.15;38.17
47785;BME280;35233;55.686;37.848;2023-02-28T08:07:15;99432.72;;;10.15;38.19
47785;BME280;35233;55.686;37.848;2023-02-28T08:09:41;99433.56;;;10.16;38.04
47785;BME280;35233;55.686;37.848;2023-02-28T08:12:08;99430.84;;;10.19;38.04
47785;BME280;35233;55.686;37.848;2023-02-28T08:14:34;99427.34;;;10.18;37.99
47785;BME280;35233;55.686;37.848;2023-02-28T08:16:59;99422.84;;;10.20;38.25
47785;BME280;35233;55.686;37.848;2023-02-28T08:19:25;99408.91;;;10.17;38.24
47785;BME280;35233;55.686;37.848;2023-02-28T08:21:51;99413.97;;;10.23;38.09
47785;BME280;35233;55.686;37.848;2023-02-28T08:24:16;99405.22;;;10.23;38.26
47785;BME280;35233;55.686;37.848;2023-02-28T08:26:42;99400.78;;;10.23;38.45
47785;BME280;35233;55.686;37.848;2023-02-28T08:29:07;99393.72;;;10.24;38.44
47785;BME280;35233;55.686;37.848;2023-02-28T08:31:33;99379.63;;;10.25;38.05
47785;BME280;35233;55.686;37.848;2023-02-28T08:34:04;99376.00;;;10.29;38.21
47785;BME280;35233;55.686;37.848;2023-02-28T08:36:30;99366.19;;;10.32;38.11
47785;BME280;35233;55.686;37.848;2023-02-28T08:38:56;99350.13;;;10.40;37.98
47785;BME280;35233;55.686;37.848;2023-02-28T08:41:23;99352.16;;;10.58;37.70
47785;BME280;35233;55.686;37.848;2023-02-28T08:43:48;99338.75;;;10.38;37.74
47785;BME280;35233;55.686;37.848;2023-02-28T08:46:14;99356.25;;;10.40;38.27
47785;BME280;35233;55.686;37.848;2023-02-28T08:48:39;99378.94;;;10.48;38.21
47785;BME280;35233;55.686;37.848;2023-02-28T08:51:10;99402.81;;;10.45;38.03
47785;BME280;35233;55.686;37.848;2023-02-28T08:53:37;99395.47;;;10.53;38.17
47785;BME280;35233;55.686;37.848;2023-02-28T08:56:11;99388.78;;;10.42;38.25
47785;BME280;35233;55.686;37.848;2023-02-28T08:58:37;99397.63;;;10.41;38.48
47785;BME280;35233;55.686;37.848;2023-02-28T09:01:21;99389.84;;;10.37;38.74
47785;BME280;35233;55.686;37.848;2023-02-28T09:03:49;99390.66;;;10.39;38.64
47785;BME280;35233;55.686;37.848;2023-02-28T09:06:15;99399.47;;;10.38;38.93
47785;BME280;35233;55.686;37.848;2023-02-28T09:08:42;99397.00;;;10.33;38.90
47785;BME280;35233;55.686;37.848;2023-02-28T09:11:08;99380.44;;;10.28;39.22
47785;BME280;35233;55.686;37.848;2023-02-28T09:13:33;99383.16;;;10.24;39.15
47785;BME280;35233;55.686;37.848;2023-02-28T09:16:01;99372.69;;;10.20;39.24
47785;BME280;35233;55.686;37.848;2023-02-28T09:18:27;99349.09;;;10.16;39.21
47785;BME280;35233;55.686;37.848;2023-02-28T09:20:54;99335.84;;;10.17;39.28
47785;BME280;35233;55.686;37.848;2023-02-28T09:23:20;99324.31;;;10.20;39.12
47785;BME280;35233;55.686;37.848;2023-02-28T09:28:12;99334.84;;;10.22;39.24
47785;BME280;35233;55.686;37.848;2023-02-28T09:30:41;99322.66;;;10.17;39.18
47785;BME280;35233;55.686;37.848;2023-02-28T09:33:07;99311.34;;;10.14;39.15
47785;BME280;35233;55.686;37.848;2023-02-28T09:35:32;99313.84;;;10.18;39.39
47785;BME280;35233;55.686;37.848;2023-02-28T09:37:58;99319.78;;;10.25;39.03
47785;BME280;35233;55.686;37.848;2023-02-28T09:40:25;99334.00;;;10.21;39.31
47785;BME280;35233;55.686;37.848;2023-02-28T09:42:53;99338.38;;;10.20;39.29
47785;BME280;35233;55.686;37.848;2023-02-28T09:45:36;99330.38;;;10.24;39.08
47785;BME280;35233;55.686;37.848;2023-02-28T09:48:16;99329.50;;;10.23;39.16
47785;BME280;35233;55.686;37.848;2023-02-28T09:50:50;99335.56;;;10.27;39.30
47785;BME280;35233;55.686;37.848;2023-02-28T09:53:25;99307.59;;;10.21;39.16
47785;BME280;35233;55.686;37.848;2023-02-28T09:55:55;99320.31;;;10.36;39.33
47785;BME280;35233;55.686;37.848;2023-02-28T09:58:31;99298.44;;;10.33;39.40
47785;BME280;35233;55.686;37.848;2023-02-28T10:01:21;99301.22;;;10.28;39.60
47785;BME280;35233;55.686;37.848;2023-02-28T10:04:41;99296.81;;;10.29;39.50
47785;BME280;35233;55.686;37.848;2023-02-28T10:06:51;99288.09;;;10.25;39.26
47785;BME280;35233;55.686;37.848;2023-02-28T10:09:22;99277.78;;;10.17;39.58
47785;BME280;35233;55.686;37.848;2023-02-28T10:11:54;99297.91;;;10.22;39.72
47785;BME280;35233;55.686;37.848;2023-02-28T10:14:24;99284.53;;;10.26;39.61
47785;BME280;35233;55.686;37.848;2023-02-28T10:22:58;99270.63;;;10.21;39.68
47785;BME280;35233;55.686;37.848;2023-02-28T10:25:28;99260.00;;;10.23;39.62
47785;BME280;35233;55.686;37.848;2023-02-28T10:28:12;99265.38;;;10.21;39.87
47785;BME280;35233;55.686;37.848;2023-02-28T10:30:42;99244.94;;;10.28;39.73
47785;BME280;35233;55.686;37.848;2023-02-28T10:35:54;99245.63;;;10.33;39.65
47785;BME280;35233;55.686;37.848;2023-02-28T10:38:26;99221.06;;;10.31;39.65
47785;BME280;35233;55.686;37.848;2023-02-28T10:41:04;99237.72;;;10.33;39.55
47785;BME280;35233;55.686;37.848;2023-02-28T10:43:29;99242.28;;;10.28;39.67
47785;BME280;35233;55.686;37.848;2023-02-28T10:48:40;99228.34;;;10.23;39.61
47785;BME280;35233;55.686;37.848;2023-02-28T10:51:14;99231.03;;;10.21;39.63
47785;BME280;35233;55.686;37.848;2023-02-28T10:58:56;99224.78;;;10.24;39.85
47785;BME280;35233;55.686;37.848;2023-02-28T11:03:55;99201.44;;;10.11;39.75
47785;BME280;35233;55.686;37.848;2023-02-28T11:06:26;99209.31;;;10.13;40.05
47785;BME280;35233;55.686;37.848;2023-02-28T11:09:23;99197.84;;;10.14;40.01
47785;BME280;35233;55.686;37.848;2023-02-28T11:11:46;99196.06;;;10.14;39.92
47785;BME280;35233;55.686;37.848;2023-02-28T11:14:21;99178.59;;;10.10;39.78
47785;BME280;35233;55.686;37.848;2023-02-28T11:16:49;99164.81;;;10.02;39.61
47785;BME280;35233;55.686;37.848;2023-02-28T11:19:28;99185.59;;;10.11;40.13
47785;BME280;35233;55.686;37.848;2023-02-28T11:21:59;99192.56;;;10.14;40.18
47785;BME280;35233;55.686;37.848;2023-02-28T11:24:35;99179.31;;;10.15;40.01
47785;BME280;35233;55.686;37.848;2023-02-28T11:27:02;99175.25;;;10.05;40.09
47785;BME280;35233;55.686;37.848;2023-02-28T11:29:33;99183.06;;;10.08;40.13
47785;BME280;35233;55.686;37.848;2023-02-28T11:34:32;99174.94;;;10.14;40.05
47785;BME280;35233;55.686;37.848;2023-02-28T11:36:59;99161.69;;;10.16;39.92
47785;BME280;35233;55.686;37.848;2023-02-28T11:39:26;99164.44;;;10.13;39.89
47785;BME280;35233;55.686;37.848;2023-02-28T11:52:52;99155.09;;;10.29;39.78
47785;BME280;35233;55.686;37.848;2023-02-28T11:55:27;99157.75;;;10.29;39.76
47785;BME280;35233;55.686;37.848;2023-02-28T12:03:31;99122.44;;;10.07;40.16
47785;BME280;35233;55.686;37.848;2023-02-28T12:16:47;99135.66;;;10.32;40.18
47785;BME280;35233;55.686;37.848;2023-02-28T12:27:48;99135.09;;;10.22;40.42
47785;BME280;35233;55.686;37.848;2023-02-28T12:30:34;99131.41;;;10.28;40.51
47785;BME280;35233;55.686;37.848;2023-02-28T12:33:07;99124.63;;;10.19;40.40
47785;BME280;35233;55.686;37.848;2023-02-28T12:35:41;99135.84;;;10.26;40.63
47785;BME280;35233;55.686;37.848;2023-02-28T12:38:14;99127.84;;;10.29;40.37
47785;BME280;35233;55.686;37.848;2023-02-28T12:43:12;99104.63;;;10.12;40.51
47785;BME280;35233;55.686;37.848;2023-02-28T12:46:00;99113.34;;;10.15;40.61
47785;BME280;35233;55.686;37.848;2023-02-28T12:48:49;99101.75;;;10.19;40.58
47785;BME280;35233;55.686;37.848;2023-02-28T12:51:16;99104.41;;;10.18;40.71
47785;BME280;35233;55.686;37.848;2023-02-28T12:59:13;99084.31;;;10.15;40.70
47785;BME280;35233;55.686;37.848;2023-02-28T13:04:57;99073.75;;;10.15;40.72
47785;BME280;35233;55.686;37.848;2023-02-28T13:10:20;99036.13;;;10.09;40.84
47785;BME280;35233;55.686;37.848;2023-02-28T13:12:53;99044.97;;;10.08;40.98
47785;BME280;35233;55.686;37.848;2023-02-28T13:15:27;99046.69;;;10.09;40.95
47785;BME280;35233;55.686;37.848;2023-02-28T13:17:58;99046.97;;;10.01;40.74
47785;BME280;35233;55.686;37.848;2023-02-28T13:20:33;99030.97;;;10.06;40.70
47785;BME280;35233;55.686;37.848;2023-02-28T13:22:59;99035.34;;;10.07;41.05
47785;BME280;35233;55.686;37.848;2023-02-28T13:31:13;99045.09;;;10.05;41.07
47785;BME280;35233;55.686;37.848;2023-02-28T13:36:26;99036.34;;;10.03;41.07
47785;BME280;35233;55.686;37.848;2023-02-28T13:39:01;99057.25;;;10.09;41.16
47785;BME280;35233;55.686;37.848;2023-02-28T13:46:29;99026.44;;;10.09;41.33
47785;BME280;35233;55.686;37.848;2023-02-28T13:48:54;99014.13;;;10.10;40.97
47785;BME280;35233;55.686;37.848;2023-02-28T13:51:39;99025.53;;;10.10;40.99
47785;BME280;35233;55.686;37.848;2023-02-28T13:57:22;99000.13;;;10.08;41.29
47785;BME280;35233;55.686;37.848;2023-02-28T14:05:14;99014.16;;;10.08;41.36
47785;BME280;35233;55.686;37.848;2023-02-28T14:07:53;99008.06;;;10.06;41.01
47785;BME280;35233;55.686;37.848;2023-02-28T14:10:36;98997.81;;;9.98;41.31
47785;BME280;35233;55.686;37.848;2023-02-28T14:15:55;99012.72;;;10.00;41.44
47785;BME280;35233;55.686;37.848;2023-02-28T14:18:29;99020.72;;;9.98;41.43
47785;BME280;35233;55.686;37.848;2023-02-28T14:26:35;99007.44;;;10.00;41.48
47785;BME280;35233;55.686;37.848;2023-02-28T14:37:50;98976.63;;;10.00;41.46
47785;BME280;35233;55.686;37.848;2023-02-28T14:40:43;98982.88;;;9.97;41.56
47785;BME280;35233;55.686;37.848;2023-02-28T14:43:22;98974.22;;;9.94;41.49
47785;BME280;35233;55.686;37.848;2023-02-28T14:45:51;98972.25;;;10.01;41.45
47785;BME280;35233;55.686;37.848;2023-02-28T14:48:19;98956.56;;;9.96;41.78
47785;BME280;35233;55.686;37.848;2023-02-28T14:50:51;98960.88;;;9.98;41.63
47785;BME280;35233;55.686;37.848;2023-02-28T14:53:19;98964.53;;;9.94;41.54
47785;BME280;35233;55.686;37.848;2023-02-28T14:55:47;98958.34;;;9.95;41.68
47785;BME280;35233;55.686;37.848;2023-02-28T14:58:26;98958.41;;;9.94;41.75
47785;BME280;35233;55.686;37.848;2023-02-28T15:00:54;98964.63;;;9.91;41.96
47785;BME280;35233;55.686;37.848;2023-02-28T15:03:40;98955.75;;;9.94;41.75
47785;BME280;35233;55.686;37.848;2023-02-28T15:06:17;98965.41;;;9.95;41.82
47785;BME280;35233;55.686;37.848;2023-02-28T15:08:44;98967.16;;;9.94;41.92
47785;BME280;35233;55.686;37.848;2023-02-28T15:13:49;98966.38;;;9.92;42.09
47785;BME280;35233;55.686;37.848;2023-02-28T15:16:42;98958.41;;;9.94;41.96
47785;BME280;35233;55.686;37.848;2023-02-28T15:19:23;98961.09;;;9.92;41.81
47785;BME280;35233;55.686;37.848;2023-02-28T15:21:56;98947.22;;;9.87;41.82
47785;BME280;35233;55.686;37.848;2023-02-28T15:26:58;98937.41;;;9.91;41.99
47785;BME280;35233;55.686;37.848;2023-02-28T15:29:27;98934.75;;;9.91;41.89
47785;BME280;35233;55.686;37.848;2023-02-28T15:32:03;98944.31;;;9.95;41.94
47785;BME280;35233;55.686;37.848;2023-02-28T15:34:38;98939.19;;;9.90;42.19
47785;BME280;35233;55.686;37.848;2023-02-28T15:37:38;98947.06;;;9.92;42.05
47785;BME280;35233;55.686;37.848;2023-02-28T15:42:38;98917.34;;;9.87;42.11
47785;BME280;35233;55.686;37.848;2023-02-28T15:45:04;98931.22;;;9.92;42.11
47785;BME280;35233;55.686;37.848;2023-02-28T15:47:30;98934.72;;;9.92;41.96